createdAt,value
2023-01-12T00:01:54.091Z,80.50
2023-01-12T00:04:21.365Z,80.40
2023-01-12T00:06:48.359Z,80.30
2023-01-12T00:09:15.527Z,80.20
2023-01-12T00:11:42.416Z,80.00
2023-01-12T00:14:09.771Z,79.90
2023-01-12T00:16:43.575Z,79.70
2023-01-12T00:19:17.331Z,79.60
2023-01-12T00:21:57.114Z,79.50
2023-01-12T00:24:33.885Z,79.50
2023-01-12T00:27:02.710Z,79.30
2023-01-12T00:29:30.060Z,79.00
2023-01-12T00:31:58.841Z,79.00
2023-01-12T00:34:27.937Z,78.90
2023-01-12T00:36:56.307Z,78.90
2023-01-12T00:39:23.304Z,78.90
2023-01-12T00:42:08.713Z,78.90
2023-01-12T00:44:54.312Z,78.80
2023-01-12T00:47:21.497Z,79.60
2023-01-12T00:49:48.519Z,78.80
2023-01-12T00:52:29.819Z,79.00
2023-01-12T00:54:57.457Z,78.80
2023-01-12T00:57:24.527Z,78.60
2023-01-12T00:59:55.117Z,78.30
2023-01-12T01:02:22.725Z,78.20
2023-01-12T01:04:50.480Z,78.10
2023-01-12T01:07:18.512Z,78.00
2023-01-12T01:09:45.619Z,78.00
2023-01-12T01:12:12.610Z,78.10
2023-01-12T01:14:39.683Z,78.00
2023-01-12T01:17:06.907Z,78.00
2023-01-12T01:19:34.020Z,78.10
2023-01-12T01:22:01.104Z,78.10
2023-01-12T01:24:28.055Z,78.20
2023-01-12T01:26:54.935Z,78.20
2023-01-12T01:29:21.883Z,78.20
2023-01-12T01:31:48.798Z,78.20
2023-01-12T01:34:15.742Z,78.20
2023-01-12T01:36:42.828Z,78.20
2023-01-12T01:39:09.879Z,78.10
2023-01-12T01:41:36.822Z,77.80
2023-01-12T01:44:29.623Z,77.70
2023-01-12T01:47:06.677Z,77.40
2023-01-12T01:49:47.463Z,77.20
2023-01-12T01:52:18.467Z,76.90
2023-01-12T01:54:57.183Z,76.70
2023-01-12T01:57:33.287Z,76.50
2023-01-12T02:00:01.821Z,76.20
2023-01-12T02:02:28.967Z,76.20
2023-01-12T02:04:56.685Z,76.00
2023-01-12T02:07:23.964Z,75.90
2023-01-12T02:09:51.147Z,75.80
2023-01-12T02:12:36.951Z,75.70
2023-01-12T02:15:22.662Z,75.50
2023-01-12T02:18:01.458Z,75.50
2023-01-12T02:20:48.409Z,75.30
2023-01-12T02:23:27.416Z,75.30
2023-01-12T02:26:12.590Z,75.40
2023-01-12T02:28:39.439Z,75.30
2023-01-12T02:31:18.808Z,75.30
2023-01-12T02:34:24.538Z,75.20
2023-01-12T02:37:20.933Z,75.20
2023-01-12T02:40:01.548Z,75.10
2023-01-12T02:42:54.862Z,75.10
2023-01-12T02:45:27.619Z,75.20
2023-01-12T02:48:22.508Z,75.20
2023-01-12T02:51:26.756Z,75.20
2023-01-12T02:54:08.033Z,75.20
2023-01-12T02:56:48.609Z,75.10
2023-01-12T02:59:36.609Z,75.10
2023-01-12T03:02:29.801Z,75.10
2023-01-12T03:05:19.701Z,75.20
2023-01-12T03:08:11.485Z,75.20
2023-01-12T03:10:58.641Z,76.00
2023-01-12T03:13:30.500Z,75.20
2023-01-12T03:16:00.300Z,75.10
2023-01-12T03:18:56.697Z,74.90
2023-01-12T03:21:33.218Z,74.70
2023-01-12T03:24:19.367Z,74.50
2023-01-12T03:27:02.842Z,74.40
2023-01-12T03:29:43.368Z,74.20
2023-01-12T03:32:13.732Z,74.20
2023-01-12T03:34:44.639Z,74.20
2023-01-12T03:37:25.225Z,74.10
2023-01-12T03:40:19.280Z,74.00
2023-01-12T03:43:02.927Z,73.90
2023-01-12T03:45:39.797Z,73.80
2023-01-12T03:48:15.694Z,73.70
2023-01-12T03:51:07.679Z,73.60
2023-01-12T03:53:42.133Z,73.60
2023-01-12T03:56:25.748Z,73.50
2023-01-12T03:59:16.024Z,73.50
2023-01-12T04:01:54.396Z,73.50
2023-01-12T04:04:28.943Z,73.50
2023-01-12T04:07:13.934Z,73.40
2023-01-12T04:09:55.274Z,73.30
2023-01-12T04:12:32.904Z,73.30
2023-01-12T04:15:08.263Z,73.30
2023-01-12T04:17:42.735Z,73.30
2023-01-12T04:20:15.569Z,73.20
2023-01-12T04:22:51.370Z,73.20
2023-01-12T04:25:25.082Z,73.20
2023-01-12T04:28:10.815Z,73.00
2023-01-12T04:30:47.324Z,72.80
2023-01-12T04:33:34.793Z,72.70
2023-01-12T04:36:07.728Z,72.50
2023-01-12T04:38:38.024Z,72.60
2023-01-12T04:41:13.502Z,72.40
2023-01-12T04:43:41.431Z,72.70
2023-01-12T04:49:01.411Z,72.30
2023-01-12T04:51:41.657Z,72.30
2023-01-12T04:57:40.191Z,72.40
2023-01-12T05:00:16.673Z,72.60
2023-01-12T05:03:04.906Z,72.70
2023-01-12T05:08:57.382Z,72.80
2023-01-12T05:11:54.024Z,72.90
2023-01-12T05:14:30.231Z,73.00
2023-01-12T05:17:08.276Z,73.00
2023-01-12T05:19:39.193Z,72.90
2023-01-12T05:22:08.582Z,73.00
2023-01-12T05:24:35.658Z,73.00
2023-01-12T05:27:02.572Z,73.00
2023-01-12T05:29:29.619Z,72.80
2023-01-12T05:31:56.488Z,72.70
2023-01-12T05:34:23.492Z,72.70
2023-01-12T05:36:50.395Z,72.60
2023-01-12T05:39:17.375Z,72.60
2023-01-12T05:42:02.727Z,72.60
2023-01-12T05:44:29.646Z,72.50
2023-01-12T05:46:56.605Z,72.40
2023-01-12T05:49:23.531Z,72.50
2023-01-12T05:51:50.479Z,72.40
2023-01-12T05:54:17.418Z,72.30
2023-01-12T05:56:44.450Z,72.30
2023-01-12T05:59:12.140Z,72.30
2023-01-12T06:01:40.790Z,73.00
2023-01-12T06:04:07.822Z,72.10
2023-01-12T06:06:34.742Z,72.10
2023-01-12T06:09:03.411Z,72.10
2023-01-12T06:12:08.555Z,72.00
2023-01-12T06:14:35.702Z,72.00
2023-01-12T06:17:02.670Z,71.90
2023-01-12T06:19:29.613Z,72.00
2023-01-12T06:21:59.532Z,71.80
2023-01-12T06:24:28.345Z,71.80
2023-01-12T06:26:55.986Z,71.70
2023-01-12T06:29:22.940Z,71.60
2023-01-12T06:31:49.983Z,71.50
2023-01-12T06:34:17.295Z,71.40
2023-01-12T06:36:44.312Z,71.10
2023-01-12T06:39:14.255Z,71.00
2023-01-12T06:41:59.666Z,70.90
2023-01-12T06:44:26.621Z,71.00
2023-01-12T06:46:53.568Z,71.10
2023-01-12T06:49:20.460Z,71.20
2023-01-12T06:51:49.137Z,71.30
2023-01-12T06:54:18.824Z,71.20
2023-01-12T06:56:46.159Z,71.30
2023-01-12T06:59:14.171Z,71.30
2023-01-12T07:01:41.334Z,71.30
2023-01-12T07:04:08.629Z,71.30
2023-01-12T07:06:35.671Z,71.40
2023-01-12T07:09:06.109Z,71.40
2023-01-12T07:11:33.090Z,71.50
2023-01-12T07:14:00.159Z,71.60
2023-01-12T07:16:27.120Z,71.70
2023-01-12T07:18:54.153Z,71.70
2023-01-12T07:21:22.214Z,71.80
2023-01-12T07:23:49.180Z,71.80
2023-01-12T07:26:16.057Z,71.80
2023-01-12T07:28:43.072Z,71.70
2023-01-12T07:31:10.137Z,71.60
2023-01-12T07:33:38.849Z,71.60
2023-01-12T07:36:06.213Z,71.60
2023-01-12T07:38:33.165Z,71.60
2023-01-12T07:41:04.092Z,71.50
2023-01-12T07:43:36.586Z,71.30
2023-01-12T07:46:20.638Z,71.20
2023-01-12T07:48:56.797Z,71.20
2023-01-12T07:51:29.965Z,71.20
2023-01-12T07:54:38.308Z,70.90
2023-01-12T07:57:10.692Z,70.70
2023-01-12T07:59:38.289Z,70.60
2023-01-12T08:02:06.425Z,70.50
2023-01-12T08:04:45.396Z,70.20
2023-01-12T08:07:14.080Z,70.10
2023-01-12T08:09:43.251Z,70.00
2023-01-12T08:12:10.761Z,69.80
2023-01-12T08:14:48.274Z,69.70
2023-01-12T08:17:19.272Z,69.60
2023-01-12T08:20:02.685Z,69.30
2023-01-12T08:22:34.466Z,69.20
2023-01-12T08:25:09.913Z,69.00
2023-01-12T08:27:39.885Z,68.80
2023-01-12T08:30:08.759Z,68.50
2023-01-12T08:32:37.839Z,68.20
2023-01-12T08:35:05.340Z,67.90
2023-01-12T08:37:34.394Z,67.60
2023-01-12T08:40:02.858Z,67.50
2023-01-12T08:42:31.957Z,67.20
2023-01-12T08:44:59.540Z,67.10
2023-01-12T08:47:30.387Z,66.80
2023-01-12T08:50:02.868Z,66.70
2023-01-12T08:52:30.059Z,66.70
2023-01-12T08:54:57.998Z,66.60
2023-01-12T08:57:25.129Z,66.50
2023-01-12T08:59:52.225Z,66.50
2023-01-12T09:02:21.539Z,66.60
2023-01-12T09:04:48.681Z,66.60
2023-01-12T09:07:17.174Z,66.90
2023-01-12T09:09:46.469Z,66.70
2023-01-12T09:12:13.559Z,66.60
2023-01-12T09:14:40.488Z,66.60
2023-01-12T09:17:07.952Z,66.70
2023-01-12T09:19:35.017Z,66.50
2023-01-12T09:22:01.915Z,66.50
2023-01-12T09:24:28.849Z,66.60
2023-01-12T09:26:55.764Z,66.50
2023-01-12T09:29:22.682Z,66.50
2023-01-12T09:31:49.967Z,66.40
2023-01-12T09:34:17.033Z,66.50
2023-01-12T09:36:45.055Z,66.50
2023-01-12T09:39:26.888Z,66.50
2023-01-12T09:42:13.759Z,66.60
2023-01-12T09:45:08.855Z,66.90
2023-01-12T09:47:48.050Z,67.10
2023-01-12T09:50:22.625Z,67.30
2023-01-12T09:52:51.776Z,67.30
2023-01-12T09:55:22.045Z,67.30
2023-01-12T09:58:23.025Z,67.30
2023-01-12T10:00:56.821Z,67.40
2023-01-12T10:03:35.723Z,67.40
2023-01-12T10:06:02.878Z,67.20
2023-01-12T10:08:37.647Z,67.00
2023-01-12T10:11:23.320Z,66.70
2023-01-12T10:14:13.213Z,66.60
2023-01-12T10:17:01.840Z,66.40
2023-01-12T10:20:05.859Z,66.50
2023-01-12T10:22:51.107Z,66.50
2023-01-12T10:25:33.299Z,66.60
2023-01-12T10:28:04.942Z,66.60
2023-01-12T10:30:35.449Z,66.80
2023-01-12T10:33:30.233Z,66.90
2023-01-12T10:36:18.993Z,67.00
2023-01-12T10:38:54.406Z,67.00
2023-01-12T10:41:23.430Z,67.00
2023-01-12T10:43:56.703Z,66.70
2023-01-12T10:46:26.957Z,66.80
2023-01-12T10:49:14.477Z,66.80
2023-01-12T10:52:02.567Z,66.90
2023-01-12T10:54:32.325Z,67.20
2023-01-12T10:57:05.102Z,67.20
2023-01-12T10:59:39.247Z,67.50
2023-01-12T11:02:15.036Z,67.60
2023-01-12T11:04:52.474Z,67.60
2023-01-12T11:07:26.115Z,66.80
2023-01-12T11:09:56.174Z,66.60
2023-01-12T11:12:38.271Z,66.20
2023-01-12T11:15:17.801Z,67.10
2023-01-12T11:18:19.554Z,66.50
2023-01-12T11:21:04.032Z,66.40
2023-01-12T11:24:00.458Z,66.70
2023-01-12T11:26:39.338Z,66.80
2023-01-12T11:29:39.459Z,67.20
2023-01-12T11:32:28.245Z,67.30
2023-01-12T11:35:30.487Z,67.50
2023-01-12T11:38:05.344Z,67.80
2023-01-12T11:40:36.426Z,68.00
2023-01-12T11:43:39.267Z,68.40
2023-01-12T11:46:35.653Z,68.50
2023-01-12T11:49:20.505Z,68.60
2023-01-12T11:51:57.216Z,68.50
2023-01-12T11:54:28.835Z,68.40
2023-01-12T11:57:28.869Z,68.40
2023-01-12T12:00:35.366Z,68.30
2023-01-12T12:03:26.477Z,68.10
2023-01-12T12:06:07.504Z,68.00
2023-01-12T12:08:48.959Z,67.90
2023-01-12T12:11:30.371Z,67.90
2023-01-12T12:14:08.284Z,67.70
2023-01-12T12:17:11.481Z,67.80
2023-01-12T12:20:03.426Z,68.00
2023-01-12T12:22:39.397Z,68.00
2023-01-12T12:25:22.316Z,68.00
2023-01-12T12:27:52.062Z,68.00
2023-01-12T12:31:03.348Z,68.20
2023-01-12T12:33:50.799Z,68.30
2023-01-12T12:36:34.195Z,68.30
2023-01-12T12:39:00.962Z,68.40
2023-01-12T12:41:59.189Z,68.30
2023-01-12T12:45:03.660Z,68.10
2023-01-12T12:47:47.107Z,68.20
2023-01-12T12:56:29.187Z,68.00
2023-01-12T12:59:04.099Z,68.00
2023-01-12T13:02:05.380Z,67.90
2023-01-12T13:05:32.737Z,67.60
2023-01-12T13:08:08.723Z,66.90
2023-01-12T13:10:42.048Z,67.00
2023-01-12T13:13:33.020Z,66.70
2023-01-12T13:30:56.838Z,65.60
2023-01-12T13:42:12.510Z,65.80
2023-01-12T13:49:23.620Z,66.10
2023-01-12T13:52:16.359Z,66.00
2023-01-12T13:54:55.114Z,65.90
2023-01-12T13:57:33.221Z,66.10
2023-01-12T14:00:25.744Z,66.40
2023-01-12T14:02:57.576Z,66.50
2023-01-12T14:05:42.684Z,66.60
2023-01-12T14:08:15.539Z,66.60
2023-01-12T14:11:10.583Z,66.60
2023-01-12T14:14:19.529Z,66.50
2023-01-12T14:17:06.029Z,66.40
2023-01-12T14:19:33.112Z,66.30
2023-01-12T14:27:36.993Z,66.30
2023-01-12T14:37:01.994Z,66.10
2023-01-12T14:39:32.027Z,66.10
2023-01-12T14:42:17.435Z,66.00
2023-01-12T14:45:40.510Z,65.60
2023-01-12T14:48:28.104Z,65.80
2023-01-12T14:51:08.500Z,65.80
2023-01-12T14:53:39.786Z,65.60
2023-01-12T14:56:32.508Z,65.50
2023-01-12T14:59:14.566Z,65.50
2023-01-12T15:01:42.347Z,65.60
2023-01-12T15:04:23.213Z,65.50
2023-01-12T15:07:05.257Z,65.60
2023-01-12T15:09:35.364Z,65.40
2023-01-12T15:12:30.504Z,65.50
2023-01-12T15:15:19.674Z,65.40
2023-01-12T15:18:06.217Z,65.80
2023-01-12T15:21:06.388Z,65.80
2023-01-12T15:23:54.263Z,65.80
2023-01-12T15:26:22.558Z,66.00
2023-01-12T15:28:50.098Z,65.90
2023-01-12T15:31:26.637Z,66.10
2023-01-12T15:33:54.249Z,66.20
2023-01-12T15:36:21.172Z,66.20
2023-01-12T15:38:48.556Z,66.40
2023-01-12T15:41:18.805Z,66.30
2023-01-12T15:43:46.092Z,66.40
2023-01-12T15:46:19.679Z,66.50
2023-01-12T15:48:49.062Z,66.50
2023-01-12T15:51:16.484Z,66.50
2023-01-12T15:53:43.459Z,66.70
2023-01-12T15:56:15.232Z,66.70
2023-01-12T15:58:42.348Z,66.70
2023-01-12T16:01:14.065Z,66.70
2023-01-12T16:04:24.976Z,66.70
2023-01-12T16:06:37.600Z,66.70
2023-01-12T16:09:04.574Z,66.80
2023-01-12T16:11:31.633Z,66.80
2023-01-12T16:13:58.920Z,66.80
2023-01-12T16:16:28.493Z,66.60
2023-01-12T16:19:00.438Z,66.60
2023-01-12T16:21:28.438Z,66.60
2023-01-12T16:23:58.010Z,67.40
2023-01-12T16:26:26.488Z,66.60
2023-01-12T16:28:53.514Z,66.40
2023-01-12T16:31:20.771Z,66.20
2023-01-12T16:33:48.086Z,66.20
2023-01-12T16:36:16.024Z,66.30
2023-01-12T16:38:43.079Z,66.30
2023-01-12T16:41:24.584Z,66.30
2023-01-12T16:43:51.589Z,66.10
2023-01-12T16:46:18.861Z,66.00
2023-01-12T16:48:46.079Z,65.90
2023-01-12T16:51:15.141Z,65.60
2023-01-12T16:53:43.426Z,65.50
2023-01-12T16:56:12.188Z,65.30
2023-01-12T16:58:39.390Z,65.20
2023-01-12T17:01:14.348Z,65.30
2023-01-12T17:03:41.779Z,65.20
2023-01-12T17:06:15.108Z,65.20
2023-01-12T17:08:43.707Z,65.20
2023-01-12T17:11:13.841Z,65.00
2023-01-12T17:13:41.495Z,65.00
2023-01-12T17:16:10.859Z,64.80
2023-01-12T17:18:39.313Z,64.60
2023-01-12T17:21:13.474Z,64.50
2023-01-12T17:23:41.954Z,64.40
2023-01-12T17:26:13.140Z,64.20
2023-01-12T17:28:41.156Z,64.00
2023-01-12T17:31:19.232Z,63.70
2023-01-12T17:33:46.774Z,63.40
2023-01-12T17:36:14.255Z,63.50
2023-01-12T17:38:41.354Z,63.30
2023-01-12T17:41:34.080Z,63.20
2023-01-12T17:44:04.442Z,62.90
2023-01-12T17:46:32.247Z,62.60
2023-01-12T17:49:04.319Z,62.50
2023-01-12T17:51:31.517Z,62.20
2023-01-12T17:54:00.239Z,62.10
2023-01-12T17:56:30.626Z,62.10
2023-01-12T17:58:58.162Z,62.00
2023-01-12T18:01:26.989Z,62.20
2023-01-12T18:03:54.008Z,62.20
2023-01-12T18:06:27.537Z,62.30
2023-01-12T18:08:56.727Z,62.30
2023-01-12T18:11:24.447Z,62.20
2023-01-12T18:13:52.004Z,62.20
2023-01-12T18:16:19.194Z,62.20
2023-01-12T18:18:46.297Z,62.30
2023-01-12T18:21:20.580Z,62.10
2023-01-12T18:23:48.905Z,62.20
2023-01-12T18:26:18.613Z,62.30
2023-01-12T18:28:45.840Z,62.40
2023-01-12T18:31:15.880Z,62.40
2023-01-12T18:33:43.523Z,62.60
2023-01-12T18:36:12.831Z,62.60
2023-01-12T18:38:41.426Z,62.60
2023-01-12T18:41:27.599Z,62.50
2023-01-12T18:43:55.189Z,62.40
2023-01-12T18:46:42.104Z,62.30
2023-01-12T18:49:09.327Z,62.20
2023-01-12T18:51:54.842Z,62.20
2023-01-12T18:54:22.597Z,62.10
2023-01-12T18:56:51.283Z,62.10
2023-01-12T18:59:18.282Z,62.10
2023-01-12T19:01:45.394Z,62.10
2023-01-12T19:04:15.339Z,62.10
2023-01-12T19:06:42.469Z,62.10
2023-01-12T19:09:27.901Z,62.20
2023-01-12T19:11:54.894Z,62.10
2023-01-12T19:14:40.437Z,62.10
2023-01-12T19:17:26.949Z,62.10
2023-01-12T19:19:56.424Z,62.00
2023-01-12T19:22:42.317Z,62.00
2023-01-12T19:25:36.395Z,62.00
2023-01-12T19:28:22.962Z,62.00
2023-01-12T19:30:50.039Z,61.70
2023-01-12T19:33:17.756Z,61.70
2023-01-12T19:35:46.195Z,61.60
2023-01-12T19:38:14.934Z,61.50
2023-01-12T19:40:50.873Z,61.40
2023-01-12T19:43:21.026Z,61.30
2023-01-12T19:45:53.431Z,61.20
2023-01-12T19:48:23.648Z,61.30
2023-01-12T19:50:51.697Z,61.10
2023-01-12T19:53:28.767Z,60.90
2023-01-12T19:55:56.414Z,61.00
2023-01-12T19:58:25.214Z,60.80
2023-01-12T20:00:56.145Z,60.80
2023-01-12T20:03:25.691Z,60.80
2023-01-12T20:05:53.021Z,60.80
2023-01-12T20:08:22.164Z,60.80
2023-01-12T20:11:00.799Z,60.70
2023-01-12T20:13:29.111Z,60.70
2023-01-12T20:15:57.677Z,60.70
2023-01-12T20:18:24.729Z,60.60
2023-01-12T20:20:53.327Z,60.60
2023-01-12T20:23:20.393Z,60.50
2023-01-12T20:25:47.350Z,60.60
2023-01-12T20:28:14.953Z,60.40
2023-01-12T20:30:43.053Z,60.40
2023-01-12T20:33:11.354Z,60.40
2023-01-12T20:35:43.945Z,60.30
2023-01-12T20:38:15.595Z,60.30
2023-01-12T20:40:44.299Z,60.30
2023-01-12T20:43:11.288Z,60.20
2023-01-12T20:45:40.503Z,60.20
2023-01-12T20:48:07.453Z,60.30
2023-01-12T20:50:34.455Z,60.30
2023-01-12T20:53:01.343Z,60.40
2023-01-12T20:55:28.327Z,60.40
2023-01-12T20:57:55.298Z,60.40
2023-01-12T21:00:22.246Z,60.40
2023-01-12T21:02:49.302Z,60.30
2023-01-12T21:05:16.257Z,60.30
2023-01-12T21:07:43.489Z,60.30
2023-01-12T21:10:12.048Z,60.40
2023-01-12T21:12:39.147Z,60.60
2023-01-12T21:15:06.538Z,60.50
2023-01-12T21:17:35.543Z,60.40
2023-01-12T21:20:02.459Z,60.30
2023-01-12T21:22:29.418Z,60.10
2023-01-12T21:24:56.263Z,60.00
2023-01-12T21:27:23.219Z,60.00
2023-01-12T21:29:50.123Z,59.80
2023-01-12T21:32:17.136Z,59.70
2023-01-12T21:34:44.172Z,59.60
2023-01-12T21:37:11.277Z,59.60
2023-01-12T21:39:38.225Z,59.60
2023-01-12T21:42:23.574Z,59.60
2023-01-12T21:44:50.567Z,59.60
2023-01-12T21:47:17.504Z,59.70
2023-01-12T21:49:44.473Z,59.70
2023-01-12T21:52:11.633Z,59.80
2023-01-12T21:54:38.722Z,59.80
2023-01-12T21:57:05.660Z,59.80
2023-01-12T21:59:32.663Z,59.90
2023-01-12T22:01:59.694Z,59.80
2023-01-12T22:04:26.852Z,59.80
2023-01-12T22:06:53.861Z,59.90
2023-01-12T22:09:21.192Z,59.90
2023-01-12T22:11:48.117Z,60.00
2023-01-12T22:14:15.131Z,60.00
2023-01-12T22:16:42.160Z,60.10
2023-01-12T22:19:09.173Z,60.10
2023-01-12T22:21:36.250Z,60.10
2023-01-12T22:24:04.046Z,60.20
2023-01-12T22:26:32.609Z,60.20
2023-01-12T22:28:59.635Z,60.20
2023-01-12T22:31:26.987Z,60.20
2023-01-12T22:34:04.075Z,61.00
2023-01-12T22:36:34.708Z,60.20
2023-01-12T22:39:02.070Z,60.20
2023-01-12T22:41:28.963Z,60.10
2023-01-12T22:43:55.959Z,60.00
2023-01-12T22:46:27.552Z,60.10
2023-01-12T22:48:56.621Z,60.10
2023-01-12T22:51:25.889Z,60.10
2023-01-12T22:53:54.091Z,60.00
2023-01-12T22:56:21.347Z,60.00
2023-01-12T22:58:50.226Z,59.90
2023-01-12T23:01:19.199Z,60.00
2023-01-12T23:03:48.113Z,60.00
2023-01-12T23:06:17.245Z,60.10
2023-01-12T23:08:45.307Z,60.00
2023-01-12T23:11:15.152Z,60.00
2023-01-12T23:13:44.278Z,60.00
2023-01-12T23:16:13.821Z,59.90
2023-01-12T23:18:42.563Z,59.90
2023-01-12T23:21:21.645Z,59.80
2023-01-12T23:23:54.234Z,59.90
2023-01-12T23:26:27.488Z,59.90
2023-01-12T23:28:59.688Z,60.00
2023-01-12T23:31:30.355Z,60.80
2023-01-12T23:33:58.115Z,60.10
2023-01-12T23:36:27.365Z,60.00
2023-01-12T23:38:55.409Z,59.80
2023-01-12T23:41:25.316Z,59.90
2023-01-12T23:43:56.342Z,59.90
2023-01-12T23:46:24.169Z,59.90
2023-01-12T23:48:53.421Z,59.90
2023-01-12T23:51:21.616Z,59.80
2023-01-12T23:53:51.383Z,59.80
2023-01-12T23:56:19.742Z,59.60
2023-01-12T23:58:47.868Z,59.50
